Weather observations for the past three days for
Big Spring, Big Spring McMahon-Wrinkle Airport
Imperial (Metric)
Date Time (cdt) Wind (mph) Vis. (mi.) Weather Sky Cond. Temperature (ºF) Relative Humidity Wind Chill (°F) Heat Index (°F) Pressure Precipitation (in)
Air Dwpt 6 hour altimeter (in) sea level (mb) 1 hr 3 hr 6 hr
Max. Min.
04 18:55 SW 23 G 44 10.00 Fair and Breezy CLR 86.9 32.2 91 82.6 14% 83 29.73 0.0
04 18:35 W 31 G 45 10.00 Fair and Windy CLR 87.6 29.1 12% 84 29.74 0.0
04 18:15 W 28 G 46 10.00 Fair and Windy CLR 88.3 26.6 11% 85 29.74 0.0
04 17:55 SW 30 G 44 10.00 Fair and Windy CLR 88.7 29.5 12% 85 29.75 0.0
04 17:35 SW 36 G 47 10.00 Fair and Windy CLR 89.6 30.9 12% 86 29.76 0.0
04 17:15 SW 36 G 43 10.00 Fair and Windy CLR 89.8 36.3 15% 86 29.76 0.0
04 16:55 SW 30 G 47 10.00 Fair and Windy CLR 90.1 35.4 14% 86 29.76 0.0
04 16:35 SW 35 G 45 10.00 Fair and Windy CLR 90.3 38.7 16% 86 29.76 0.0
04 16:15 W 29 G 46 10.00 Fair and Windy CLR 90 39.2 17% 86 29.77 0.0
04 15:55 SW 32 G 43 10.00 Fair and Windy CLR 90.5 40.1 17% 87 29.79 0.0
04 15:35 W 38 G 45 10.00 Fair and Windy CLR 89.6 42.4 19% 86 29.8 0.0
04 14:55 SW 21 G 43 10.00 Fair and Breezy CLR 88.7 46.4 23% 85 29.81 0.0
04 14:35 SW 25 G 36 10.00 Fair and Breezy CLR 88.2 49.3 26% 85 29.82 0.0
04 14:15 SW 23 G 35 10.00 Fair and Breezy CLR 88 50 27% 85 29.83 0.0
04 13:55 SW 18 G 28 10.00 Fair CLR 86.5 50.9 29% 84 29.83 0.0
04 13:35 SW 13 G 20 10.00 Fair CLR 84.4 51.1 32% 83 29.84 0.0
04 13:15 SW 21 10.00 Fair and Breezy CLR 84.4 51.1 32% 83 29.86 0.0
04 12:55 SW 21 G 29 10.00 Fair and Breezy CLR 83.1 51.6 83.3 61 34% 82 29.87 0.0
04 12:35 SW 18 G 24 10.00 Fair CLR 81.9 51.4 35% 81 29.87 0.0
04 12:15 SW 20 G 29 10.00 Fair CLR 80.8 51.3 36% 80 29.89 0.0
04 11:55 SW 16 G 33 10.00 Fair CLR 78.8 52.3 40% 79 29.89 0.0
04 11:35 SW 20 10.00 Fair CLR 77.2 51.4 41% 78 29.89 0.0
04 11:15 SW 21 10.00 Fair and Breezy CLR 75.7 52 44% 78 29.89 0.0
04 10:55 S 15 G 22 10.00 Fair CLR 73 51.6 47% 29.9 0.0
04 10:35 SW 20 G 24 10.00 Fair CLR 71.4 51.4 49% 29.9 0.0
04 10:15 SW 18 10.00 Fair CLR 69.8 51.1 52% 29.9 0.0
04 09:55 SW 18 10.00 Fair CLR 70.2 51.1 51% 29.91 0.0
04 09:35 SW 20 10.00 Fair CLR 68 50.9 54% 29.9 0.0
04 09:15 SW 15 10.00 Fair CLR 66 50.7 58% 29.91 0.0
04 08:55 S 15 G 24 10.00 Fair CLR 65.3 50.4 59% 29.91 0.0
04 08:35 SW 13 G 20 10.00 Fair CLR 64 50 60% 29.89 0.0
04 08:15 S 12 10.00 Fair CLR 63 49.5 62% 29.89 0.0
04 07:55 S 12 10.00 Fair CLR 62.2 49.1 62% 29.89 0.0
04 07:35 SW 10 10.00 Fair CLR 61.5 48.6 63% 29.87 0.0
04 07:15 S 9 10.00 Fair CLR 61.2 48 62% 29.87 0.0
04 06:55 SW 12 10.00 Fair CLR 61.2 47.8 64.8 61 62% 29.87 0.0
04 06:35 SW 12 10.00 Fair CLR 61.3 47.8 61% 29.86 0.0
04 06:15 S 7 10.00 Fair CLR 61.3 47.7 61% 29.86 0.0
04 05:55 SW 8 10.00 Fair CLR 61.3 47.7 61% 29.86 0.0
04 05:35 S 9 10.00 Fair CLR 61.3 47.8 61% 29.87 0.0
04 05:15 S 7 10.00 Fair CLR 61.3 47.8 61% 29.87 0.0
04 04:55 S 7 10.00 Fair CLR 61.9 47.8 60% 29.87 0.0
04 04:35 SW 12 10.00 Fair CLR 62.1 47.8 60% 29.88 0.0
04 04:15 SW 14 10.00 Fair CLR 62.1 47.8 60% 29.89 0.0
04 03:55 SW 16 10.00 Fair CLR 62.6 47.7 58% 29.9 0.0
04 03:35 SW 16 10.00 Fair CLR 62.6 47.7 58% 29.9 0.0
04 03:15 SW 16 10.00 Fair CLR 62.6 47.7 58% 29.91 0.0
04 02:55 S 14 10.00 Fair CLR 62.8 47.5 58% 29.91 0.0
04 02:35 SW 15 10.00 Fair CLR 63 47.3 57% 29.93 0.0
04 02:15 S 16 10.00 Fair CLR 63.1 47.3 56% 29.93 0.0
04 01:55 SW 16 10.00 Fair CLR 63.5 46.9 55% 29.94 0.0
04 01:35 S 16 10.00 Fair CLR 63.7 46.9 55% 29.95 0.0
04 01:15 S 15 10.00 Fair CLR 64.2 46.8 53% 29.96 0.0
04 00:55 S 14 10.00 Fair CLR 64.8 46.4 75 64.6 52% 29.96 0.0
04 00:35 S 15 10.00 Fair CLR 64.9 46.2 51% 29.95 0.0
04 00:15 S 13 10.00 Fair CLR 65.3 45.9 50% 29.96 0.0
03 23:55 S 13 10.00 Fair CLR 65.8 45.7 48% 29.98 0.0
03 23:35 S 13 10.00 Fair CLR 66.6 45.5 47% 29.98 0.0
03 23:15 S 13 10.00 Fair CLR 67.1 45.7 46% 29.99 0.0
03 22:55 S 14 10.00 Fair CLR 67.5 45.7 46% 29.99 0.0
03 22:35 S 12 10.00 Fair CLR 67.5 45.3 45% 29.99 0.0
03 22:15 S 10 10.00 Fair CLR 68 44.6 43% 29.99 0.0
03 21:55 S 10 10.00 Fair CLR 68.7 44.1 41% 29.99 0.0
03 21:35 S 9 10.00 Fair CLR 69.1 43.7 40% 29.98 0.0
03 21:15 S 10 10.00 Fair CLR 70 43.5 39% 29.98 0.0
03 20:55 S 7 10.00 Fair CLR 70.5 43.7 38% 29.97 0.0
03 20:35 S 8 10.00 Fair CLR 71.6 43.3 36% 29.97 0.0
03 20:15 S 8 10.00 Fair CLR 72.3 43.3 35% 29.98 0.0
03 19:55 S 10 10.00 Fair CLR 73 43.5 35% 29.98 0.0
03 19:35 S 10 10.00 Fair CLR 73.9 43.7 34% 29.98 0.0
03 19:15 S 12 10.00 Fair CLR 74.8 44.4 34% 29.99 0.0
03 18:55 S 12 G 20 10.00 Fair CLR 74.8 44.4 78.3 71.8 34% 29.99 0.0
03 18:35 S 14 10.00 Fair CLR 75.2 44.1 33% 77 29.99 0.0
03 18:15 S 13 G 26 10.00 Fair CLR 75.7 44.1 32% 77 29.99 0.0
03 17:55 S 12 G 21 10.00 Fair CLR 76.3 43.5 31% 77 30 0.0
03 17:35 S 10 10.00 Fair CLR 77 43.7 31% 78 30 0.0
03 17:15 SW 16 G 21 10.00 Fair CLR 76.1 43.2 31% 77 30.01 0.0
03 16:55 SW 18 G 26 10.00 Fair CLR 77.2 43.2 30% 78 30.01 0.0
03 16:35 SW 10 10.00 Fair CLR 76.8 43.3 30% 78 30.03 0.0
03 16:15 SW 13 10.00 Fair CLR 76.6 43.2 30% 78 30.04 0.0
03 15:55 SW 17 G 26 10.00 Fair CLR 77.4 43.3 30% 78 30.05 0.0
03 15:35 S 13 G 22 10.00 Fair CLR 77 43.3 30% 78 30.06 0.0
03 15:15 S 13 G 25 10.00 Fair CLR 76.3 43.2 31% 77 30.08 0.0
03 14:55 SW 14 G 23 10.00 Fair CLR 75.6 43.3 32% 77 30.08 0.0
03 14:35 SW 15 G 23 10.00 Fair CLR 75.9 43.5 32% 77 30.1 0.0
03 14:15 S 9 10.00 Fair CLR 74.7 44.1 34% 30.11 0.0
03 13:55 SW 15 G 25 10.00 Fair CLR 74.5 44.1 34% 30.12 0.0
03 13:35 SW 15 G 24 10.00 Fair CLR 73.4 43.5 34% 30.13 0.0
03 13:15 SW 12 G 23 10.00 Fair CLR 72.5 43.7 36% 30.15 0.0
03 12:55 SW 15 G 23 10.00 Fair CLR 72.5 43.2 73 51.1 35% 30.16 0.0
03 12:35 S 13 G 23 10.00 Fair CLR 71.4 44.2 38% 30.17 0.0
03 12:15 SW 14 G 20 10.00 Fair CLR 71.4 44.2 38% 30.18 0.0
03 11:55 S 9 G 21 10.00 Fair CLR 70.3 45.5 41% 30.18 0.0
03 11:35 SW 15 G 21 10.00 Fair CLR 69.4 45.5 42% 30.19 0.0
03 11:15 SW 18 G 23 10.00 Fair CLR 68.5 45.9 44% 30.2 0.0
03 10:55 SW 14 G 22 10.00 Fair CLR 67.5 46 46% 30.21 0.0
03 10:35 S 10 10.00 Fair CLR 66.4 46 48% 30.2 0.0
03 10:15 SW 14 10.00 Fair CLR 65.8 46.4 50% 30.21 0.0
03 09:55 SW 15 G 21 10.00 Fair CLR 64.2 46.9 54% 30.21 0.0
03 09:35 S 13 10.00 Fair CLR 62.6 46.8 56% 30.21 0.0
03 09:15 SW 17 10.00 Fair CLR 61 46.9 60% 30.22 0.0
03 08:55 SW 13 10.00 Fair CLR 58.8 46.8 64% 30.21 0.0
03 08:35 SW 12 10.00 Fair CLR 57.4 46.2 67% 30.21 0.0
03 08:15 S 7 10.00 Fair CLR 55.9 45.9 69% 30.2 0.0
03 07:55 S 10 10.00 Fair CLR 54.1 45.3 72% 30.2 0.0
03 07:35 S 9 10.00 Fair CLR 52.7 45 75% 30.19 0.0
03 07:15 S 10 10.00 Fair CLR 51.8 44.4 76% 30.18 0.0
03 06:55 S 8 10.00 Fair CLR 51.3 44.6 56.5 51.1 78% 30.17 0.0
03 06:35 S 9 10.00 Fair CLR 51.8 44.6 77% 30.17 0.0
03 06:15 S 7 10.00 Fair CLR 51.6 44.8 78% 30.16 0.0
03 05:55 S 8 10.00 Fair CLR 51.8 45.1 78% 30.16 0.0
03 05:35 S 7 10.00 Fair CLR 52 45.3 78% 30.16 0.0
03 05:15 SW 9 10.00 Fair CLR 52.5 45.5 77% 30.17 0.0
03 04:55 SW 9 10.00 Fair CLR 53.2 45 74% 30.17 0.0
03 04:35 S 8 10.00 Fair CLR 54 45 72% 30.17 0.0
03 04:15 SW 9 10.00 Fair CLR 54.1 45.1 72% 30.17 0.0
03 03:55 S 8 10.00 Fair CLR 53.4 45.9 76% 30.17 0.0
03 03:35 S 6 10.00 Fair CLR 53.2 46.2 77% 30.18 0.0
03 03:15 SW 8 10.00 Fair CLR 53.8 46.4 76% 30.17 0.0
03 02:55 S 8 10.00 Fair CLR 54.1 46.6 76% 30.18 0.0
03 02:35 S 8 10.00 Fair CLR 54.3 47.1 77% 30.18 0.0
03 02:15 SW 8 10.00 Fair CLR 54.5 47.1 76% 30.19 0.0
03 01:55 SW 8 10.00 Fair CLR 55 47.1 75% 30.19 0.0
03 01:35 SW 8 10.00 Fair CLR 55.9 46.9 72% 30.19 0.0
03 01:15 S 8 10.00 Fair CLR 55.9 47.5 73% 30.19 0.0
03 00:55 SW 8 10.00 Fair CLR 56.5 47.5 67.1 56.1 72% 30.19 0.0
03 00:35 SW 8 10.00 Fair CLR 56.5 47.5 72% 30.19 0.0
03 00:15 SW 7 10.00 Fair CLR 56.8 48 73% 30.19 0.0
02 23:55 SW 7 10.00 Fair CLR 57 48.2 73% 30.19 0.0
02 23:35 SW 7 10.00 Fair CLR 57.4 48.7 73% 30.19 0.0
02 23:15 SW 7 10.00 Fair CLR 57.9 49.3 73% 30.19 0.0
02 22:55 SW 7 10.00 Fair CLR 58.1 49.8 74% 30.19 0.0
02 22:35 SW 7 10.00 Fair CLR 59 50.4 73% 30.18 0.0
02 22:15 SW 8 10.00 Fair CLR 59.7 49.6 69% 30.18 0.0
02 21:55 SW 7 10.00 Fair CLR 60.8 49.3 66% 30.17 0.0
02 21:35 SE 6 10.00 Fair CLR 59.7 49.3 69% 30.17 0.0
02 21:15 SW 7 10.00 Fair CLR 62.4 47.1 58% 30.17 0.0
02 20:55 SW 7 10.00 Partly Cloudy SCT080 63.5 46.9 55% 30.16 0.0
02 20:35 SW 8 10.00 Mostly Cloudy BKN080 65.1 45.7 50% 30.16 0.0
02 20:15 SW 8 10.00 Overcast OVC080 66.2 43.9 45% 30.16 0.0
02 19:55 S 6 10.00 Overcast OVC070 66.6 42.1 41% 30.15 0.0
02 19:35 S 3 10.00 Overcast OVC070 66.7 42.3 41% 30.16 0.0
02 19:15 S 5 10.00 Overcast OVC070 66.7 41.4 40% 30.15 0.0
02 18:55 W 7 10.00 Overcast OVC070 66.7 41.2 68 63.5 39% 30.15 0.0
02 18:35 SW 7 10.00 Overcast OVC070 66.9 41.9 40% 30.15 0.0
02 18:15 E 3 10.00 Overcast OVC070 67.1 41.7 40% 30.15 0.0
02 17:55 SE 5 10.00 Overcast OVC070 66.7 41.7 40% 30.16 0.0
02 17:35 SW 7 10.00 Overcast OVC070 66.9 41.5 40% 30.17 0.0
02 17:15 SE 5 10.00 Overcast OVC080 66.9 41.5 40% 30.17 0.0
02 16:55 SW 6 10.00 Overcast OVC080 66.9 42.8 42% 30.18 0.0
02 16:35 W 10 10.00 Mostly Cloudy BKN080 67.3 42.3 40% 30.19 0.0
02 16:15 W 12 10.00 Partly Cloudy SCT080 67.3 43.2 42% 30.19 0.0
02 15:55 W 9 10.00 Overcast SCT050 OVC080 66.9 42.4 41% 30.2 0.0
02 15:35 SW 9 10.00 Overcast BKN050 OVC070 67.8 42.8 40% 30.21 0.0
02 15:15 SE 5 10.00 Overcast OVC070 66.7 42.4 41% 30.21 0.0
02 14:55 SW 10 10.00 Overcast OVC070 66.2 42.3 42% 30.22 0.0
02 14:35 W 9 10.00 Overcast SCT050 OVC070 65.3 42.1 43% 30.22 0.0
02 14:15 SW 13 10.00 Overcast SCT050 OVC070 65.7 43.3 45% 30.22 0.0
02 13:55 W 8 10.00 Overcast OVC070 65.3 42.3 43% 30.23 0.0
02 13:35 N 8 10.00 Overcast OVC070 64.4 41.5 43% 30.24 0.0
02 13:15 N 7 10.00 Overcast OVC060 64.6 41.9 44% 30.24 0.0
02 12:55 Calm 10.00 Mostly Cloudy BKN070 63.7 40.5 66 52.9 43% 30.24 0.0
02 12:35 SW 5 10.00 Fair CLR 63.9 41.9 45% 30.25 0.0
02 12:15 NW 7 10.00 Fair CLR 65.3 44.6 47% 30.25 0.0
02 11:55 W 10 10.00 Partly Cloudy SCT050 63.3 43 48% 30.26 0.0
02 11:35 W 12 10.00 Fair CLR 63.1 43.5 49% 30.26 0.0
02 11:15 N 8 10.00 Fair CLR 62.4 41.5 47% 30.26 0.0
02 10:55 W 12 G 17 10.00 Fair CLR 61.7 43.2 51% 30.26 0.0
02 10:35 W 9 10.00 Fair CLR 61 41.9 50% 30.26 0.0
02 10:15 W 12 G 18 10.00 Fair CLR 60.1 42.4 52% 30.26 0.0
02 09:55 W 13 10.00 Fair CLR 59.7 41.5 51% 30.26 0.0
02 09:35 W 10 G 17 10.00 Fair CLR 59 42.4 54% 30.25 0.0
02 09:15 W 12 10.00 Fair CLR 57.7 46.6 67% 30.25 0.0
02 08:55 W 9 10.00 Partly Cloudy SCT090 55.9 48 75% 30.25 0.0
02 08:35 W 10 10.00 Partly Cloudy SCT090 54.5 48.9 82% 30.24 0.0
02 08:15 W 10 10.00 Mostly Cloudy BKN090 53.8 49.6 86% 30.24 0.0
02 07:55 W 10 10.00 Overcast OVC090 53.4 49.5 87% 30.23 0.0
02 07:35 W 12 10.00 Overcast OVC090 53.2 49.5 87% 30.22 0.0
02 07:10 W 8 10.00 Overcast OVC090 53.1 49.5 88% 30.21 0.0
02 06:55 W 9 10.00 Overcast OVC090 52.9 49.3 55 51.8 88% 30.21 0.0
02 06:35 W 9 10.00 Overcast OVC090 52.9 49.5 88% 30.2 0.0
02 06:15 W 9 10.00 Overcast OVC090 52.9 49.3 88% 30.2 0.0
02 05:55 W 8 10.00 Overcast OVC090 52.9 49.3 88% 30.2 0.0
02 05:35 W 8 10.00 Overcast OVC090 53.1 48.7 85% 30.19 0.0
02 05:15 W 9 10.00 Overcast OVC090 53.4 48.2 83% 30.19 0.0
02 04:55 W 8 10.00 Overcast OVC090 53.2 48 83% 30.19 0.0
02 04:35 W 9 10.00 Overcast OVC090 53.1 48.6 85% 30.18 0.0
02 04:15 W 8 10.00 Overcast OVC090 52.9 48.4 85% 30.17 0.0
02 03:55 W 9 10.00 Overcast OVC090 53.2 47.7 81% 30.17 0.0
02 03:35 W 9 10.00 Overcast OVC080 53.1 48.4 84% 30.17 0.0
02 03:15 W 8 10.00 Overcast OVC080 52.5 48.2 85% 30.17 0.0
02 02:55 W 8 10.00 Overcast SCT060 OVC080 52.3 47.5 84% 30.17 0.0
02 02:35 W 9 10.00 Mostly Cloudy SCT060 BKN080 BKN090 52.9 48 84% 30.18 0.0
02 02:15 W 10 10.00 Overcast OVC080 53.4 47.7 81% 30.18 0.0
02 01:35 W 7 10.00 Partly Cloudy SCT075 SCT120 53.8 47.7 80% 30.18 0.0
02 01:15 W 6 10.00 Overcast SCT075 OVC120 54.9 46.8 74% 30.18 0.0
02 00:55 W 6 10.00 Overcast BKN090 OVC120 55 46.6 59 55 73% 30.18 0.0
02 00:35 W 7 10.00 Overcast OVC090 55.4 46.2 71% 30.18 0.0
02 00:15 SW 6 10.00 Overcast OVC080 55.6 45.9 70% 30.18 0.0
01 23:55 SE 7 10.00 Overcast BKN080 OVC090 55.9 45.1 67% 30.16 0.0
01 23:35 E 7 10.00 Overcast OVC080 56.3 43.7 63% 30.15 0.0
01 23:15 S 5 10.00 Overcast OVC090 56.3 43.9 63% 30.15 0.0
01 22:55 SE 6 10.00 Overcast OVC090 55.9 44.4 65% 30.14 0.0
01 22:35 W 5 10.00 Overcast OVC090 56.1 44.6 65% 30.14 0.0
01 22:15 N 7 10.00 Overcast OVC100 56.1 44.2 65% 30.13 0.0
01 21:55 NW 6 10.00 Overcast SCT070 OVC100 56.5 43.5 62% 30.13 0.0
01 21:35 N 7 10.00 Overcast SCT070 OVC110 56.5 43.5 62% 30.12 0.0
01 21:15 N 9 10.00 Overcast SCT070 OVC120 56.5 43.5 62% 30.11 0.0
01 20:55 N 8 10.00 Mostly Cloudy BKN070 BKN090 BKN120 56.7 44.1 63% 30.1 0.0
01 20:35 N 9 10.00 Mostly Cloudy SCT070 BKN090 57.2 42.8 59% 30.1 0.0
01 20:15 N 12 10.00 Overcast SCT070 OVC090 57.7 41.9 56% 30.08 0.0
01 19:55 N 16 10.00 Overcast BKN070 OVC090 58.1 41.9 55% 30.08 0.0
01 19:35 N 17 10.00 Overcast OVC090 58.6 42.8 56% 30.07 0.0
01 19:15 NE 13 10.00 Overcast OVC100 58.5 43.3 57% 30.06 0.0
Date Time (cdt) Wind (mph) Vis. (mi.) Weather Sky Cond. Air Dwpt Max. Min. Relative Humidity Wind Chill (°F) Heat Index (°F) altimeter (in) sea level (mb) 1 hr 3 hr 6 hr
6 hour
Temperature (ºF) Pressure Precipitation (in)